Cordova Mudhole Smith Airport

About
Name: Cordova Mudhole Smith Airport
Identifier:  CDV/PACV
Local Time:  18. Jul 10:00 AKDT
Location
Flights per Day
4 flights
Distance: 291km (181mi)
Punctuality
79% (1 flights per day delayed)
Delay Average: 3 minutes
Current Weather
 17 C (Humidity: 67%)
  0kt (0km/h / 0mph) from 0°
  Scattered clouds at 20,000 feet (6,096 meter)
  16km (10 mi.)
 METAR PACV 181653Z 00000KT 10SM SCT200 17/11 A2971 RMK AO2 SLP061 T01670111

Current Flights

Current Delays

Departures
N/A
Arrivals
N/A

Destinations

Top Destinations
Airport Flights
per week
Seats
per week
  Anchorage (ANC) 19 2,033 2 290
  Yakutat (YAK) 14 2,030 2 290
  King Salmon (AKN) 0 - 0 0
  Aniak (ANI) 0 - 0 0

Airlines & Planes

Top Airlines
Airline Flights
per Day
Seats
per Day
  Alaska Airlines 4 578
Alaska Central Express 0 -
  Everts Air 0 -
  PenAir 0 1
Top Plane Types
Model Flights Seats
Boeing B737-700 2.6/day 301/day 301.73333333333335
Boeing B737-800 1.6/day 266/day 266.23333333333335
Beech 1900D 0.6/day - 0
McDonnell-Douglas MD-83 0.1/day - 0
Boeing B737-900 0.1/day 10/day 10.866666666666667
Saab 2000 0.0/day 1/day 1.6666666666666667